createdAt,value
2019-01-24T00:00:50.036Z,22.03
2019-01-24T00:03:19.835Z,20.67
2019-01-24T00:05:49.456Z,24.57
2019-01-24T00:08:19.028Z,24.43
2019-01-24T00:10:48.664Z,21.83
2019-01-24T00:13:18.232Z,26.27
2019-01-24T00:15:47.792Z,26.63
2019-01-24T00:18:17.366Z,18.70
2019-01-24T00:20:46.922Z,22.43
2019-01-24T00:23:16.537Z,22.70
2019-01-24T00:25:46.120Z,24.53
2019-01-24T00:28:15.675Z,24.10
2019-01-24T00:30:45.246Z,21.77
2019-01-24T00:33:14.818Z,22.90
2019-01-24T00:35:44.738Z,25.10
2019-01-24T00:38:14.285Z,25.50
2019-01-24T00:40:43.835Z,22.50
2019-01-24T00:43:14.664Z,24.90
2019-01-24T00:45:44.201Z,19.70
2019-01-24T00:48:13.772Z,22.57
2019-01-24T00:50:43.317Z,24.50
2019-01-24T00:53:12.889Z,23.40
2019-01-24T00:55:42.516Z,19.50
2019-01-24T00:58:12.089Z,18.10
2019-01-24T01:00:41.831Z,24.17
2019-01-24T01:03:11.458Z,24.07
2019-01-24T01:05:41.100Z,23.57
2019-01-24T01:08:10.651Z,25.50
2019-01-24T01:10:40.562Z,26.50
2019-01-24T01:13:10.252Z,23.00
2019-01-24T01:15:39.796Z,25.23
2019-01-24T01:18:09.503Z,24.60
2019-01-24T01:20:39.053Z,21.23
2019-01-24T01:23:08.632Z,18.73
2019-01-24T01:25:38.258Z,14.30
2019-01-24T01:28:07.902Z,24.47
2019-01-24T01:30:37.591Z,24.33
2019-01-24T01:33:07.211Z,22.37
2019-01-24T01:35:36.854Z,20.00
2019-01-24T01:38:07.311Z,23.87
2019-01-24T01:40:36.884Z,25.20
2019-01-24T01:43:06.773Z,23.20
2019-01-24T01:45:36.323Z,25.93
2019-01-24T01:48:05.964Z,26.77
2019-01-24T01:50:35.590Z,25.27
2019-01-24T01:53:05.299Z,25.47
2019-01-24T01:55:34.924Z,24.93
2019-01-24T01:58:04.619Z,23.57
2019-01-24T02:00:34.197Z,23.53
2019-01-24T02:03:03.745Z,25.00
2019-01-24T02:05:33.385Z,23.20
2019-01-24T02:08:02.935Z,22.87
2019-01-24T02:10:33.188Z,22.77
2019-01-24T02:13:02.736Z,23.57
2019-01-24T02:15:32.286Z,21.67
2019-01-24T02:18:01.931Z,20.60
2019-01-24T02:20:31.555Z,23.47
2019-01-24T02:23:01.120Z,22.30
2019-01-24T02:25:30.677Z,19.00
2019-01-24T02:28:00.260Z,22.80
2019-01-24T02:30:31.331Z,26.27
2019-01-24T02:33:01.271Z,24.13
2019-01-24T02:35:30.823Z,24.50
2019-01-24T02:38:00.381Z,23.67
2019-01-24T02:40:30.018Z,21.50
2019-01-24T02:42:59.590Z,23.40
2019-01-24T02:45:29.167Z,24.00
2019-01-24T02:47:58.828Z,23.80
2019-01-24T02:50:28.396Z,23.77
2019-01-24T02:52:57.950Z,22.30
2019-01-24T02:55:27.519Z,21.50
2019-01-24T02:57:57.075Z,20.40
2019-01-24T03:00:26.603Z,24.17
2019-01-24T03:02:56.127Z,22.83
2019-01-24T03:05:25.734Z,21.77
2019-01-24T03:07:55.254Z,20.97
2019-01-24T03:10:24.801Z,24.27
2019-01-24T03:12:54.318Z,22.87
2019-01-24T03:15:24.091Z,20.37
2019-01-24T03:17:53.714Z,23.90
2019-01-24T03:20:23.637Z,23.67
2019-01-24T03:22:53.165Z,24.90
2019-01-24T03:25:22.866Z,20.87
2019-01-24T03:27:52.406Z,20.70
2019-01-24T03:30:23.128Z,23.30
2019-01-24T03:32:52.764Z,17.67
2019-01-24T03:35:25.424Z,20.57
2019-01-24T03:37:55.186Z,23.70
2019-01-24T03:40:24.780Z,23.90
2019-01-24T03:42:54.325Z,20.90
2019-01-24T03:45:23.845Z,22.07
2019-01-24T03:47:53.365Z,23.37
2019-01-24T03:50:23.740Z,23.80
2019-01-24T03:52:53.437Z,18.57
2019-01-24T03:55:23.307Z,23.10
2019-01-24T03:57:52.835Z,22.40
2019-01-24T04:00:25.568Z,23.50
2019-01-24T04:02:55.207Z,24.87
2019-01-24T04:05:24.896Z,24.80
2019-01-24T04:07:54.519Z,24.47
2019-01-24T04:10:24.409Z,22.80
2019-01-24T04:12:53.951Z,24.17
2019-01-24T04:15:25.514Z,25.40
2019-01-24T04:17:55.435Z,18.60
2019-01-24T04:20:25.177Z,27.50
2019-01-24T04:22:54.698Z,26.20
2019-01-24T04:25:24.240Z,23.60
2019-01-24T04:27:53.776Z,26.37
2019-01-24T04:30:23.737Z,25.07
2019-01-24T04:32:53.256Z,26.10
2019-01-24T04:35:22.862Z,28.10
2019-01-24T04:37:52.391Z,25.67
2019-01-24T04:40:21.932Z,20.77
2019-01-24T04:42:52.151Z,24.50
2019-01-24T04:45:21.682Z,23.87
2019-01-24T04:47:51.231Z,22.80
2019-01-24T04:50:20.749Z,24.80
2019-01-24T04:52:50.352Z,26.10
2019-01-24T04:55:20.715Z,24.60
2019-01-24T04:57:50.472Z,23.10
2019-01-24T05:00:26.448Z,21.40
2019-01-24T05:02:55.981Z,18.47
2019-01-24T05:05:28.011Z,26.50
2019-01-24T05:07:56.845Z,15.73
2019-01-24T05:10:26.458Z,20.50
2019-01-24T05:12:55.974Z,25.00
2019-01-24T05:15:25.495Z,23.50
2019-01-24T05:17:55.055Z,23.53
2019-01-24T05:20:24.574Z,23.67
2019-01-24T05:22:54.114Z,27.40
2019-01-24T05:25:23.654Z,20.07
2019-01-24T05:27:53.198Z,28.20
2019-01-24T05:30:25.326Z,25.73
2019-01-24T05:32:55.418Z,23.63
2019-01-24T05:35:25.029Z,25.50
2019-01-24T05:37:54.572Z,20.97
2019-01-24T05:40:24.118Z,21.63
2019-01-24T05:42:53.733Z,25.10
2019-01-24T05:45:23.332Z,22.23
2019-01-24T05:47:52.858Z,26.40
2019-01-24T05:50:22.378Z,23.33
2019-01-24T05:52:51.914Z,22.70
2019-01-24T05:55:21.445Z,19.87
2019-01-24T05:57:51.091Z,22.50
2019-01-24T06:00:29.248Z,24.20
2019-01-24T06:02:58.797Z,21.00
2019-01-24T06:05:28.316Z,21.87
2019-01-24T06:07:57.845Z,24.13
2019-01-24T06:10:27.385Z,24.77
2019-01-24T06:12:56.906Z,24.10
2019-01-24T06:15:26.646Z,25.27
2019-01-24T06:17:56.167Z,26.67
2019-01-24T06:20:25.682Z,23.57
2019-01-24T06:22:55.231Z,23.20
2019-01-24T06:25:24.746Z,23.97
2019-01-24T06:27:54.475Z,21.70
2019-01-24T06:30:24.710Z,25.57
2019-01-24T06:32:54.227Z,21.83
2019-01-24T06:35:23.768Z,22.80
2019-01-24T06:37:53.294Z,18.17
2019-01-24T06:40:22.829Z,22.07
2019-01-24T06:42:52.360Z,22.93
2019-01-24T06:45:23.486Z,17.40
2019-01-24T06:47:53.030Z,22.30
2019-01-24T06:50:22.699Z,20.40
2019-01-24T06:52:52.393Z,22.67
2019-01-24T06:55:28.116Z,21.27
2019-01-24T06:57:57.635Z,19.50
2019-01-24T07:00:27.252Z,18.33
2019-01-24T07:02:56.837Z,20.27
2019-01-24T07:05:26.395Z,21.73
2019-01-24T07:07:57.822Z,23.60
2019-01-24T07:10:27.368Z,20.07
2019-01-24T07:12:56.873Z,19.83
2019-01-24T07:15:26.458Z,12.00
2019-01-24T07:17:56.083Z,16.23
2019-01-24T07:20:25.685Z,22.37
2019-01-24T07:22:55.210Z,20.27
2019-01-24T07:25:27.740Z,17.70
2019-01-24T07:27:57.352Z,20.10
2019-01-24T07:30:26.868Z,23.63
2019-01-24T07:32:56.389Z,21.97
2019-01-24T07:35:25.950Z,17.90
2019-01-24T07:37:55.471Z,18.20
2019-01-24T07:40:25.005Z,18.03
2019-01-24T07:42:54.591Z,18.97
2019-01-24T07:45:28.406Z,17.07
2019-01-24T07:47:57.942Z,20.57
2019-01-24T07:50:27.602Z,20.93
2019-01-24T07:52:57.140Z,22.23
2019-01-24T07:55:26.663Z,21.60
2019-01-24T07:57:56.261Z,21.60
2019-01-24T08:00:30.257Z,19.40
2019-01-24T08:02:59.779Z,19.20
2019-01-24T08:05:31.226Z,20.17
2019-01-24T08:08:00.748Z,14.47
2019-01-24T08:10:30.298Z,20.33
2019-01-24T08:12:59.811Z,17.90
2019-01-24T08:15:29.410Z,19.37
2019-01-24T08:17:58.949Z,18.27
2019-01-24T08:20:29.214Z,16.70
2019-01-24T08:22:58.751Z,15.53
2019-01-24T08:25:28.278Z,20.43
2019-01-24T08:27:58.140Z,18.40
2019-01-24T08:30:31.091Z,19.50
2019-01-24T08:33:00.689Z,14.07
2019-01-24T08:35:30.577Z,18.53
2019-01-24T08:38:00.100Z,16.47
2019-01-24T08:40:29.714Z,17.90
2019-01-24T08:42:59.245Z,13.60
2019-01-24T08:45:28.841Z,17.20
2019-01-24T08:47:58.376Z,16.87
2019-01-24T08:50:28.439Z,18.70
2019-01-24T08:52:57.958Z,16.50
2019-01-24T08:55:34.290Z,16.23
2019-01-24T08:58:04.385Z,15.50
2019-01-24T09:00:33.998Z,18.47
2019-01-24T09:03:03.584Z,16.77
2019-01-24T09:05:33.103Z,17.90
2019-01-24T09:08:02.721Z,18.67
2019-01-24T09:10:37.877Z,18.20
2019-01-24T09:13:07.852Z,16.47
2019-01-24T09:15:37.706Z,16.87
2019-01-24T09:18:08.618Z,15.13
2019-01-24T09:20:38.166Z,18.20
2019-01-24T09:23:07.747Z,14.33
2019-01-24T09:25:37.430Z,17.00
2019-01-24T09:28:07.114Z,19.07
2019-01-24T09:30:36.821Z,20.73
2019-01-24T09:33:06.409Z,15.40
2019-01-24T09:35:36.016Z,15.00
2019-01-24T09:38:05.913Z,17.43
2019-01-24T09:40:35.428Z,16.60
2019-01-24T09:43:05.138Z,19.40
2019-01-24T09:45:34.804Z,18.77
2019-01-24T09:48:05.353Z,18.23
2019-01-24T09:50:34.889Z,18.23
2019-01-24T09:53:04.406Z,19.60
2019-01-24T09:55:33.932Z,17.93
2019-01-24T09:58:03.522Z,19.40
2019-01-24T10:00:35.067Z,16.50
2019-01-24T10:03:05.028Z,22.40
2019-01-24T10:05:34.631Z,16.80
2019-01-24T10:08:04.667Z,20.87
2019-01-24T10:10:34.277Z,19.87
2019-01-24T10:13:03.788Z,19.17
2019-01-24T10:15:33.314Z,19.03
2019-01-24T10:18:02.861Z,19.30
2019-01-24T10:20:32.406Z,21.63
2019-01-24T10:23:01.936Z,20.00
2019-01-24T10:25:34.771Z,19.23
2019-01-24T10:28:04.661Z,20.90
2019-01-24T10:30:34.384Z,19.07
2019-01-24T10:33:04.048Z,17.40
2019-01-24T10:35:33.583Z,20.60
2019-01-24T10:38:03.173Z,20.80
2019-01-24T10:40:34.067Z,19.43
2019-01-24T10:43:03.930Z,18.57
2019-01-24T10:45:33.547Z,21.50
2019-01-24T10:48:03.220Z,20.23
2019-01-24T10:50:32.749Z,19.03
2019-01-24T10:53:02.291Z,19.87
2019-01-24T10:55:31.885Z,19.20
2019-01-24T10:58:01.965Z,19.60
2019-01-24T11:00:38.331Z,21.30
2019-01-24T11:03:10.889Z,18.63
2019-01-24T11:05:40.413Z,19.40
2019-01-24T11:08:10.211Z,17.60
2019-01-24T11:10:39.819Z,18.27
2019-01-24T11:13:09.357Z,21.00
2019-01-24T11:15:38.885Z,20.80
2019-01-24T11:18:08.556Z,19.87
2019-01-24T11:20:38.085Z,21.60
2019-01-24T11:23:07.803Z,20.73
2019-01-24T11:25:37.545Z,20.90
2019-01-24T11:28:07.170Z,22.50
2019-01-24T11:30:37.031Z,20.90
2019-01-24T11:33:08.388Z,23.67
2019-01-24T11:35:38.900Z,21.97
2019-01-24T11:38:08.665Z,24.70
2019-01-24T11:40:38.378Z,23.07
2019-01-24T11:43:07.992Z,23.97
2019-01-24T11:45:40.406Z,19.07
2019-01-24T11:48:10.120Z,37.60
2019-01-24T11:50:39.645Z,25.30
2019-01-24T11:53:09.195Z,19.03
2019-01-24T11:55:38.728Z,23.50
2019-01-24T11:58:08.628Z,24.23
2019-01-24T12:00:41.316Z,22.97
2019-01-24T12:03:10.838Z,24.27
2019-01-24T12:05:40.376Z,24.40
2019-01-24T12:08:10.245Z,26.17
2019-01-24T12:10:39.782Z,30.53
2019-01-24T12:13:09.344Z,28.17
2019-01-24T12:15:38.890Z,26.67
2019-01-24T12:18:08.536Z,28.17
2019-01-24T12:20:38.082Z,27.10
2019-01-24T12:23:07.695Z,29.90
2019-01-24T12:25:37.239Z,21.37
2019-01-24T12:28:07.011Z,27.47
2019-01-24T12:30:37.762Z,27.77
2019-01-24T12:33:07.535Z,28.53
2019-01-24T12:35:37.266Z,28.20
2019-01-24T12:38:07.034Z,28.30
2019-01-24T12:40:36.654Z,29.40
2019-01-24T12:43:06.528Z,30.53
2019-01-24T12:45:39.095Z,31.10
2019-01-24T12:48:08.788Z,27.17
2019-01-24T12:50:38.440Z,31.30
2019-01-24T12:53:08.267Z,30.20
2019-01-24T12:55:37.875Z,27.07
2019-01-24T12:58:07.566Z,26.60
2019-01-24T13:00:38.546Z,27.13
2019-01-24T13:03:08.194Z,30.83
2019-01-24T13:05:37.706Z,30.93
2019-01-24T13:08:07.311Z,29.47
2019-01-24T13:10:37.042Z,27.07
2019-01-24T13:13:06.977Z,28.50
2019-01-24T13:15:36.949Z,24.80
2019-01-24T13:18:07.137Z,23.20
2019-01-24T13:20:36.780Z,29.57
2019-01-24T13:23:06.636Z,22.77
2019-01-24T13:25:36.268Z,23.07
2019-01-24T13:28:06.239Z,11.73
2019-01-24T13:30:36.211Z,25.23
2019-01-24T13:33:06.275Z,18.87
2019-01-24T13:35:35.837Z,22.73
2019-01-24T13:38:06.166Z,25.13
2019-01-24T13:40:35.711Z,26.57
2019-01-24T13:43:05.980Z,23.90
2019-01-24T13:45:37.010Z,21.17
2019-01-24T13:48:07.079Z,23.17
2019-01-24T13:50:36.599Z,26.00
2019-01-24T13:53:06.503Z,25.50
2019-01-24T13:55:36.092Z,25.57
2019-01-24T13:58:06.093Z,25.53
2019-01-24T14:00:37.006Z,24.70
2019-01-24T14:03:14.626Z,15.40
2019-01-24T14:05:44.426Z,20.47
2019-01-24T14:08:13.966Z,23.77
2019-01-24T14:10:43.561Z,22.77
2019-01-24T14:13:13.128Z,24.13
2019-01-24T14:15:42.632Z,24.50
2019-01-24T14:18:12.179Z,23.60
2019-01-24T14:20:41.738Z,22.37
2019-01-24T14:23:11.279Z,26.47
2019-01-24T14:25:40.822Z,27.70
2019-01-24T14:28:10.543Z,24.20
2019-01-24T14:30:40.176Z,25.80
2019-01-24T14:33:09.798Z,25.07
2019-01-24T14:35:39.407Z,24.43
2019-01-24T14:38:10.013Z,26.33
2019-01-24T14:40:39.574Z,24.93
2019-01-24T14:43:09.184Z,26.83
2019-01-24T14:45:38.721Z,19.20
2019-01-24T14:48:08.598Z,27.17
2019-01-24T14:50:38.517Z,20.17
2019-01-24T14:53:08.261Z,25.30
2019-01-24T14:55:37.781Z,24.10
2019-01-24T14:58:07.578Z,27.87
2019-01-24T15:00:45.274Z,27.13
2019-01-24T15:03:14.844Z,25.77
2019-01-24T15:05:44.510Z,26.67
2019-01-24T15:08:14.898Z,26.33
2019-01-24T15:10:44.470Z,28.60
2019-01-24T15:13:14.079Z,27.07
2019-01-24T15:15:43.687Z,24.37
2019-01-24T15:18:13.364Z,28.50
2019-01-24T15:20:42.973Z,25.20
2019-01-24T15:23:12.515Z,25.77
2019-01-24T15:25:42.034Z,26.77
2019-01-24T15:28:11.720Z,25.80
2019-01-24T15:30:41.464Z,24.90
2019-01-24T15:33:11.038Z,24.60
2019-01-24T15:35:40.620Z,26.70
2019-01-24T15:38:10.315Z,26.10
2019-01-24T15:40:40.073Z,24.40
2019-01-24T15:43:09.700Z,26.50
2019-01-24T15:45:39.530Z,27.90
2019-01-24T15:48:09.481Z,25.30
2019-01-24T15:50:39.378Z,26.57
2019-01-24T15:53:11.877Z,22.70
2019-01-24T15:55:41.577Z,25.53
2019-01-24T15:58:11.285Z,23.67
2019-01-24T16:00:41.177Z,27.73
2019-01-24T16:03:10.837Z,26.03
2019-01-24T16:05:40.358Z,25.03
2019-01-24T16:08:10.051Z,26.77
2019-01-24T16:10:39.589Z,26.70
2019-01-24T16:13:09.131Z,28.47
2019-01-24T16:15:38.666Z,24.30
2019-01-24T16:18:09.597Z,28.20
2019-01-24T16:20:39.481Z,28.67
2019-01-24T16:23:09.148Z,25.97
2019-01-24T16:25:39.020Z,26.80
2019-01-24T16:28:08.548Z,25.23
2019-01-24T16:30:38.546Z,26.20
2019-01-24T16:33:09.645Z,27.90
2019-01-24T16:35:39.565Z,26.07
2019-01-24T16:38:09.837Z,26.40
2019-01-24T16:40:39.478Z,26.83
2019-01-24T16:43:08.998Z,25.83
2019-01-24T16:45:38.536Z,26.20
2019-01-24T16:48:08.476Z,25.30
2019-01-24T16:50:38.011Z,25.90
2019-01-24T16:53:07.611Z,24.50
2019-01-24T16:55:37.168Z,27.57
2019-01-24T16:58:07.352Z,23.90
2019-01-24T17:00:43.946Z,19.37
2019-01-24T17:03:13.535Z,22.30
2019-01-24T17:05:43.268Z,25.13
2019-01-24T17:08:16.763Z,27.00
2019-01-24T17:10:44.100Z,31.70
2019-01-24T17:13:13.645Z,30.80
2019-01-24T17:15:43.174Z,27.37
2019-01-24T17:18:12.714Z,31.57
2019-01-24T17:20:42.259Z,32.40
2019-01-24T17:23:11.787Z,32.30
2019-01-24T17:25:41.327Z,28.23
2019-01-24T17:28:10.839Z,30.40
2019-01-24T17:30:40.382Z,31.90
2019-01-24T17:33:09.914Z,31.00
2019-01-24T17:35:40.792Z,32.30
2019-01-24T17:38:10.437Z,31.40
2019-01-24T17:40:40.022Z,32.97
2019-01-24T17:43:09.603Z,31.00
2019-01-24T17:45:39.180Z,33.97
2019-01-24T17:48:08.982Z,29.30
2019-01-24T17:50:38.504Z,30.50
2019-01-24T17:53:08.043Z,36.35
2019-01-24T17:55:46.147Z,34.07
2019-01-24T17:58:15.857Z,33.87
2019-01-24T18:00:47.023Z,30.90
2019-01-24T18:03:16.832Z,26.67
2019-01-24T18:05:46.688Z,31.50
2019-01-24T18:08:16.438Z,30.43
2019-01-24T18:10:45.920Z,28.67
2019-01-24T18:13:15.470Z,29.50
2019-01-24T18:15:45.742Z,28.73
2019-01-24T18:18:15.915Z,30.17
2019-01-24T18:20:45.441Z,31.13
2019-01-24T18:23:15.062Z,31.10
2019-01-24T18:25:44.591Z,26.40
2019-01-24T18:28:14.366Z,26.57
2019-01-24T18:30:44.133Z,31.57
2019-01-24T18:33:13.864Z,32.00
2019-01-24T18:35:43.550Z,32.37
2019-01-24T18:38:13.155Z,27.90
2019-01-24T18:40:42.847Z,29.40
2019-01-24T18:43:16.600Z,32.00
2019-01-24T18:45:50.307Z,30.50
2019-01-24T18:48:19.997Z,30.50
2019-01-24T18:50:49.611Z,32.93
2019-01-24T18:53:19.219Z,30.37
2019-01-24T18:55:48.732Z,26.50
2019-01-24T18:58:18.258Z,24.70
2019-01-24T19:00:47.975Z,27.90
2019-01-24T19:03:17.494Z,29.20
2019-01-24T19:05:47.037Z,26.47
2019-01-24T19:08:16.702Z,29.90
2019-01-24T19:10:46.232Z,28.00
2019-01-24T19:13:15.814Z,29.53
2019-01-24T19:15:45.355Z,29.80
2019-01-24T19:18:15.212Z,26.07
2019-01-24T19:20:44.759Z,29.03
2019-01-24T19:23:14.277Z,25.80
2019-01-24T19:25:44.673Z,30.37
2019-01-24T19:28:14.190Z,27.37
2019-01-24T19:30:43.903Z,26.70
2019-01-24T19:33:13.420Z,31.03
2019-01-24T19:35:42.959Z,30.97
2019-01-24T19:38:12.487Z,30.83
2019-01-24T19:40:42.200Z,27.97
2019-01-24T19:43:11.732Z,30.23
2019-01-24T19:45:41.262Z,31.27
2019-01-24T19:48:11.056Z,29.43
2019-01-24T19:50:40.600Z,30.63
2019-01-24T19:53:10.191Z,32.53
2019-01-24T19:55:39.898Z,31.07
2019-01-24T19:58:09.691Z,31.40
2019-01-24T20:00:39.297Z,29.97
2019-01-24T20:03:09.374Z,31.63
2019-01-24T20:05:38.890Z,31.07
2019-01-24T20:08:08.650Z,29.63
2019-01-24T20:10:38.198Z,28.57
2019-01-24T20:13:07.731Z,29.37
2019-01-24T20:15:37.332Z,29.47
2019-01-24T20:18:07.760Z,25.30
2019-01-24T20:20:37.658Z,24.20
2019-01-24T20:23:07.699Z,25.33
2019-01-24T20:25:37.463Z,24.83
2019-01-24T20:28:07.004Z,23.70
2019-01-24T20:30:36.661Z,24.87
2019-01-24T20:33:06.636Z,25.30
2019-01-24T20:35:43.514Z,23.33
2019-01-24T20:38:13.395Z,23.17
2019-01-24T20:40:42.917Z,22.90
2019-01-24T20:43:14.185Z,21.80
2019-01-24T20:45:43.771Z,23.40
2019-01-24T20:48:13.548Z,22.43
2019-01-24T20:50:43.277Z,22.03
2019-01-24T20:53:12.971Z,25.60
2019-01-24T20:55:42.485Z,24.00
2019-01-24T20:58:12.029Z,23.43
2019-01-24T21:00:41.546Z,22.93
2019-01-24T21:03:11.237Z,22.27
2019-01-24T21:05:40.753Z,21.60
2019-01-24T21:08:10.302Z,23.13
2019-01-24T21:10:39.824Z,22.87
2019-01-24T21:13:09.419Z,22.30
2019-01-24T21:15:39.020Z,21.30
2019-01-24T21:18:08.613Z,23.57
2019-01-24T21:20:38.311Z,24.10
2019-01-24T21:23:08.038Z,21.30
2019-01-24T21:25:37.548Z,24.27
2019-01-24T21:28:07.186Z,23.55
2019-01-24T21:30:38.268Z,23.53
2019-01-24T21:33:08.644Z,24.20
2019-01-24T21:35:38.166Z,21.73
2019-01-24T21:38:09.349Z,22.57
2019-01-24T21:40:38.861Z,21.07
2019-01-24T21:43:08.415Z,21.60
2019-01-24T21:45:39.545Z,21.63
2019-01-24T21:48:09.438Z,22.07
2019-01-24T21:50:39.028Z,22.77
2019-01-24T21:53:08.637Z,24.47
2019-01-24T21:55:38.171Z,23.50
2019-01-24T21:58:08.245Z,23.23
2019-01-24T22:00:37.916Z,23.10
2019-01-24T22:03:07.608Z,23.07
2019-01-24T22:05:37.242Z,23.50
2019-01-24T22:08:07.237Z,24.70
2019-01-24T22:10:36.844Z,26.53
2019-01-24T22:13:06.772Z,21.87
2019-01-24T22:15:36.692Z,22.57
2019-01-24T22:18:06.661Z,23.17
2019-01-24T22:20:36.440Z,21.87
2019-01-24T22:23:06.612Z,22.70
2019-01-24T22:25:36.479Z,24.87
2019-01-24T22:28:06.810Z,22.60
2019-01-24T22:30:42.049Z,23.93
2019-01-24T22:33:11.721Z,24.07
2019-01-24T22:35:41.272Z,23.70
2019-01-24T22:38:10.821Z,24.07
2019-01-24T22:40:40.362Z,23.33
2019-01-24T22:43:10.026Z,23.40
2019-01-24T22:45:39.945Z,25.20
2019-01-24T22:48:11.010Z,25.87
2019-01-24T22:50:40.553Z,24.67
2019-01-24T22:53:10.153Z,25.20
2019-01-24T22:55:39.696Z,23.90
2019-01-24T22:58:09.389Z,22.97
2019-01-24T23:00:59.126Z,23.77
2019-01-24T23:03:44.245Z,25.27
2019-01-24T23:06:13.789Z,26.10
2019-01-24T23:08:43.314Z,24.63
2019-01-24T23:11:12.921Z,23.40
2019-01-24T23:13:42.450Z,27.70
2019-01-24T23:16:12.132Z,24.90
2019-01-24T23:18:41.659Z,24.97
2019-01-24T23:21:11.263Z,27.33
2019-01-24T23:23:40.786Z,25.00
2019-01-24T23:26:10.457Z,23.90
2019-01-24T23:28:40.378Z,25.77
2019-01-24T23:31:09.867Z,26.03
2019-01-24T23:33:39.406Z,28.57
2019-01-24T23:36:09.003Z,26.07
2019-01-24T23:38:38.538Z,26.00
2019-01-24T23:41:08.092Z,26.90
2019-01-24T23:43:37.705Z,28.00
2019-01-24T23:46:07.433Z,27.93
2019-01-24T23:48:37.040Z,28.97
2019-01-24T23:51:06.584Z,27.90
2019-01-24T23:53:36.181Z,29.00
2019-01-24T23:56:06.053Z,26.10
2019-01-24T23:58:35.576Z,27.80
